Terminal Aerodrome Forecast
Issued by NWS Shreveport, LA

Home | Current Version | Previous Version | Text Only | Print | Product List | Glossary On
Versions: 1 2 3 4 5 6 7 8 9 10 11 12 13 14 15 16 17
015
FTUS44 KSHV 191138
TAFLFK
TAF
KLFK 191138Z 1912/2012 VRB04KT 3/4SM BR OVC002
      TEMPO 1912/1915 2SM -RA BR OVC002
     FM191500 VRB04KT 3SM -SHRA BR OVC003
     FM191800 21006KT P6SM OVC007
     FM192100 21006KT P6SM BKN015
     FM200200 18005KT P6SM OVC007=

USA.gov is the U.S. government's official web portal to all federal, state and local government web resources and services.